Portada
METAR-TAF:

METAR-TAF

Aeroports :

Beirut, Líban

latitud: 33-49N, longitud: 035-29E, altitud: 29 m

Observació

L'informe es va fer fa 1 hora i 3 minuts, a les 23:00 UTC
Vent 2 kt amb direcció variable
Temperatura 26°C
Humitat 84%
Pressió 1006 hPa
Visibilitat: 8000 m
Escasses núvols a una alçada de 1700 ft

METAR: OLBA 032300Z VRB02KT 8000 FEW017 26/23 Q1006 NOSIG

Hora: 03:03 (00:03 UTC)

Pronòstic

L'informe es va fer fa 2 hores i 3 minuts, a les 22:00 UTC
Pronòstic vàlid del 04 a les 00 UTC al 05 a les 06 UTC
Vent 3 kt del Sud-Est
Visibilitat: 8000 m
Evolucionant progressivament
l' 04 a les 06 UTC al 04 a les 08 UTC
Vent 12 kt del Oest/Sud-Oest
Visibilitat: 8000 m
Escasses núvols a una alçada de 3000 ft
Evolucionant progressivament
l' 04 a les 20 UTC al 04 a les 22 UTC
Vent 3 kt del Sud-Est
Visibilitat 10 km o més
sense núvols per sota de 1500 mi sense presència de cumulonimbus.

TAF: OLBA 032200Z 0400/0506 14003KT 8000 NSC BECMG 0406/0408 24012KT 8000 FEW030 BECMG 0420/0422 14003KT CAVOK

Observacions i pronòstics meteorològics de més de 4000 aeroports (METAR i TAF).

Les estacions disponibles són els punts grocs i vermells al mapa.

Posi el ratolí al punt desitjat per veure el nom de l'estació.

Feu clic per veure les observacions i els pronòstics meteorològics.

Per canviar el mapa: feu clic els botons verds amb una creu de color negre per apropar; al botó verd amb un guió per allunyar la imatge; o en les fletxes verdes per a mapes adjacents.


METAR-TAF: